ADDS METAR Data INFO
IDs: Format: Raw Decoded Include TAF

Data at: 0254 UTC 21 Jan 2018

KFTY 210153Z 00000KT 10SM CLR 07/03 A3026 RMK AO2 SLP249 T00670033
KFTY 210053Z 00000KT 10SM CLR 08/04 A3025 RMK AO2 SLP246 T00830039
KFTY 202353Z 00000KT 10SM CLR 11/04 A3023 RMK AO2 SLP240 T01060039 10172 20106 53009
KFTY 202253Z 00000KT 10SM CLR 14/04 A3021 RMK AO2 SLP233 T01440039
KFTY 202153Z 31005KT 10SM CLR 17/04 A3021 RMK AO2 SLP233 T01670039
KFTY 202053Z VRB05KT 10SM CLR 17/03 A3020 RMK AO2 SLP229 T01720033 56014
KFTY 201953Z 31008KT 10SM CLR 17/04 A3021 RMK AO2 SLP231 T01670039
KFTY 201853Z 27008KT 10SM CLR 16/03 A3022 RMK AO2 SLP236 T01560028
KFTY 201753Z VRB04KT 10SM FEW043 14/02 A3024 RMK AO2 SLP244 T01440022 10150 21033 58012
KFTY 201653Z 26003KT 10SM OVC041 11/M01 A3028 RMK AO2 SLP255 T01111011
KFTY 201553Z 20003KT 10SM BKN040 08/M03 A3030 RMK AO2 SLP263 T00831033
KFTY 201453Z 00000KT 10SM SCT038 03/M04 A3028 RMK AO2 SLP259 T00331044 50007
KFTY 201353Z 00000KT 10SM OVC038 00/M05 A3028 RMK AO2 SLP259 T00001050
KFTY 201253Z 00000KT 10SM OVC038 M02/M05 A3026 RMK AO2 SLP254 T10171050
KFTY 201153Z 00000KT 10SM BKN035 M03/M06 A3026 RMK AO2 SLP253 T10331056 11017 21039 50000
KFTY 201053Z 00000KT 10SM CLR M03/M06 A3026 RMK AO2 SLP251 T10281061
KFTY 200953Z 00000KT 10SM CLR M03/M06 A3026 RMK AO2 SLP250 T10331061
KFTY 200853Z 00000KT 10SM CLR M03/M06 A3026 RMK AO2 SLP250 T10281056 53002
KFTY 200753Z 00000KT 10SM CLR M03/M06 A3026 RMK AO2 SLP250 T10281056
KFTY 200653Z 00000KT 10SM CLR M02/M07 A3025 RMK AO2 SLP247 T10221067
KFTY 200553Z 00000KT 10SM CLR M02/M07 A3025 RMK AO2 SLP247 T10221067 10050 21028 50003
KFTY 200453Z 00000KT 10SM CLR M02/M07 A3025 RMK AO2 SLP249 T10171067 401221039
KFTY 200353Z 00000KT 10SM CLR M02/M07 A3026 RMK AO2 SLP252 T10171072
KFTY 200253Z 00000KT 10SM CLR M01/M07 A3024 RMK AO2 SLP246 T10111067 51008
KFTY 200153Z 00000KT 10SM CLR 01/M08 A3024 RMK AO2 SLP246 T00111083
KFTY 200053Z 00000KT 10SM CLR 02/M10 A3022 RMK AO2 SLP241 T00171100
KFTY 192353Z 00000KT 10SM CLR 03/M09 A3022 RMK AO2 SLP238 T00331094 10122 20028 56005
KFTY 192253Z 32003KT 10SM CLR 09/M14 A3022 RMK AO2 SLP238 T00941144
KFTY 192153Z 00000KT 10SM CLR 12/M16 A3022 RMK AO2 SLP238 T01171161
KFTY 192053Z VRB04KT 10SM CLR 12/M16 A3023 RMK AO2 SLP240 T01171161 56018
KFTY 191953Z 26006KT 10SM CLR 11/M16 A3024 RMK AO2 SLP243 T01111161
KFTY 191853Z VRB03KT 10SM CLR 10/M14 A3025 RMK AO2 SLP248 T01001144
KFTY 191753Z 26006KT 10SM CLR 09/M13 A3029 RMK AO2 SLP259 T00891128 10089 21039 58017
KFTY 191653Z 29007KT 10SM CLR 07/M14 A3032 RMK AO2 SLP272 T00671139
KFTY 191553Z 33004KT 10SM CLR 05/M12 A3034 RMK AO2 SLP281 T00501122